sensor_id;sensor_type;location;lat;lon;timestamp;temperature;humidity
47546;DHT22;50104;52.002;4.688;2023-04-06T00:03:48;6.20;67.30
47546;DHT22;50104;52.002;4.688;2023-04-06T00:08:48;6.20;67.40
47546;DHT22;50104;52.002;4.688;2023-04-06T00:13:50;6.20;67.60
47546;DHT22;50104;52.002;4.688;2023-04-06T00:18:50;6.20;67.60
47546;DHT22;50104;52.002;4.688;2023-04-06T00:23:51;6.20;67.40
47546;DHT22;50104;52.002;4.688;2023-04-06T00:28:52;6.20;67.40
47546;DHT22;50104;52.002;4.688;2023-04-06T00:33:53;6.20;67.70
47546;DHT22;50104;52.002;4.688;2023-04-06T00:38:54;6.20;67.40
47546;DHT22;50104;52.002;4.688;2023-04-06T00:43:56;6.20;67.20
47546;DHT22;50104;52.002;4.688;2023-04-06T00:48:57;6.20;67.20
47546;DHT22;50104;52.002;4.688;2023-04-06T00:53:58;6.20;67.40
47546;DHT22;50104;52.002;4.688;2023-04-06T00:58:58;6.20;67.40
47546;DHT22;50104;52.002;4.688;2023-04-06T01:04:00;6.20;67.30
47546;DHT22;50104;52.002;4.688;2023-04-06T01:09:00;6.20;67.30
47546;DHT22;50104;52.002;4.688;2023-04-06T01:14:03;6.20;67.30
47546;DHT22;50104;52.002;4.688;2023-04-06T01:19:08;6.10;67.30
47546;DHT22;50104;52.002;4.688;2023-04-06T01:24:10;6.10;67.40
47546;DHT22;50104;52.002;4.688;2023-04-06T01:29:11;6.10;67.30
47546;DHT22;50104;52.002;4.688;2023-04-06T01:34:12;6.10;67.40
47546;DHT22;50104;52.002;4.688;2023-04-06T01:39:13;6.00;67.50
47546;DHT22;50104;52.002;4.688;2023-04-06T01:44:17;6.00;67.50
47546;DHT22;50104;52.002;4.688;2023-04-06T01:49:19;6.00;67.50
47546;DHT22;50104;52.002;4.688;2023-04-06T01:54:20;5.90;67.50
47546;DHT22;50104;52.002;4.688;2023-04-06T01:59:21;5.90;67.50
47546;DHT22;50104;52.002;4.688;2023-04-06T02:04:21;5.90;67.60
47546;DHT22;50104;52.002;4.688;2023-04-06T02:09:22;5.80;67.60
47546;DHT22;50104;52.002;4.688;2023-04-06T02:14:26;5.80;67.80
47546;DHT22;50104;52.002;4.688;2023-04-06T02:19:27;5.80;67.90
47546;DHT22;50104;52.002;4.688;2023-04-06T02:24:28;5.80;67.90
47546;DHT22;50104;52.002;4.688;2023-04-06T02:29:29;5.80;67.90
47546;DHT22;50104;52.002;4.688;2023-04-06T02:34:30;5.80;68.10
47546;DHT22;50104;52.002;4.688;2023-04-06T02:39:31;5.80;68.20
47546;DHT22;50104;52.002;4.688;2023-04-06T02:44:32;5.80;68.40
47546;DHT22;50104;52.002;4.688;2023-04-06T02:49:33;5.80;68.40
47546;DHT22;50104;52.002;4.688;2023-04-06T02:54:33;5.80;68.70
47546;DHT22;50104;52.002;4.688;2023-04-06T02:59:34;5.80;69.10
47546;DHT22;50104;52.002;4.688;2023-04-06T03:04:35;5.80;68.80
47546;DHT22;50104;52.002;4.688;2023-04-06T03:09:39;5.90;68.70
47546;DHT22;50104;52.002;4.688;2023-04-06T03:14:40;5.90;68.70
47546;DHT22;50104;52.002;4.688;2023-04-06T03:19:41;5.90;68.70
47546;DHT22;50104;52.002;4.688;2023-04-06T03:24:42;5.90;68.80
47546;DHT22;50104;52.002;4.688;2023-04-06T03:29:43;5.90;68.80
47546;DHT22;50104;52.002;4.688;2023-04-06T03:34:44;5.90;68.80
47546;DHT22;50104;52.002;4.688;2023-04-06T03:39:45;5.90;68.80
47546;DHT22;50104;52.002;4.688;2023-04-06T03:44:45;5.90;69.00
47546;DHT22;50104;52.002;4.688;2023-04-06T03:49:46;5.90;69.00
47546;DHT22;50104;52.002;4.688;2023-04-06T03:54:47;5.90;69.00
47546;DHT22;50104;52.002;4.688;2023-04-06T03:59:48;5.90;69.10
47546;DHT22;50104;52.002;4.688;2023-04-06T04:04:49;5.90;69.10
47546;DHT22;50104;52.002;4.688;2023-04-06T04:09:50;5.90;69.20
47546;DHT22;50104;52.002;4.688;2023-04-06T04:14:51;5.90;69.20
47546;DHT22;50104;52.002;4.688;2023-04-06T04:19:51;6.00;69.10
47546;DHT22;50104;52.002;4.688;2023-04-06T04:24:52;6.00;69.20
47546;DHT22;50104;52.002;4.688;2023-04-06T04:29:53;6.00;69.30
47546;DHT22;50104;52.002;4.688;2023-04-06T04:34:54;5.90;69.40
47546;DHT22;50104;52.002;4.688;2023-04-06T04:39:55;5.90;69.50
47546;DHT22;50104;52.002;4.688;2023-04-06T04:44:56;6.00;69.60
47546;DHT22;50104;52.002;4.688;2023-04-06T04:49:57;6.00;69.90
47546;DHT22;50104;52.002;4.688;2023-04-06T04:54:58;6.00;69.90
47546;DHT22;50104;52.002;4.688;2023-04-06T04:59:58;6.00;70.00
47546;DHT22;50104;52.002;4.688;2023-04-06T05:05:00;6.00;70.10
47546;DHT22;50104;52.002;4.688;2023-04-06T05:10:01;6.00;70.10
47546;DHT22;50104;52.002;4.688;2023-04-06T05:15:02;6.00;70.30
47546;DHT22;50104;52.002;4.688;2023-04-06T05:20:04;6.10;70.80
47546;DHT22;50104;52.002;4.688;2023-04-06T05:25:06;6.10;71.00
47546;DHT22;50104;52.002;4.688;2023-04-06T05:30:07;6.10;71.00
47546;DHT22;50104;52.002;4.688;2023-04-06T05:35:09;6.20;71.00
47546;DHT22;50104;52.002;4.688;2023-04-06T05:40:10;6.20;70.90
47546;DHT22;50104;52.002;4.688;2023-04-06T05:45:12;6.20;70.90
47546;DHT22;50104;52.002;4.688;2023-04-06T05:50:17;6.30;70.80
47546;DHT22;50104;52.002;4.688;2023-04-06T05:55:18;6.30;70.80
47546;DHT22;50104;52.002;4.688;2023-04-06T06:00:19;6.30;70.70
47546;DHT22;50104;52.002;4.688;2023-04-06T06:05:20;6.40;70.60
47546;DHT22;50104;52.002;4.688;2023-04-06T06:10:21;6.40;70.60
47546;DHT22;50104;52.002;4.688;2023-04-06T06:15:22;6.50;70.60
47546;DHT22;50104;52.002;4.688;2023-04-06T06:20:23;6.50;70.60
47546;DHT22;50104;52.002;4.688;2023-04-06T06:25:24;6.60;70.80
47546;DHT22;50104;52.002;4.688;2023-04-06T06:30:25;6.60;70.80
47546;DHT22;50104;52.002;4.688;2023-04-06T06:35:26;6.70;70.80
47546;DHT22;50104;52.002;4.688;2023-04-06T06:40:27;6.70;70.70
47546;DHT22;50104;52.002;4.688;2023-04-06T06:45:28;6.80;70.70
47546;DHT22;50104;52.002;4.688;2023-04-06T06:50:30;6.80;70.70
47546;DHT22;50104;52.002;4.688;2023-04-06T06:55:31;6.90;70.80
47546;DHT22;50104;52.002;4.688;2023-04-06T07:00:32;6.90;70.80
47546;DHT22;50104;52.002;4.688;2023-04-06T07:05:33;7.00;70.70
47546;DHT22;50104;52.002;4.688;2023-04-06T07:10:34;7.00;70.90
47546;DHT22;50104;52.002;4.688;2023-04-06T07:15:35;7.10;71.00
47546;DHT22;50104;52.002;4.688;2023-04-06T07:20:37;7.20;71.20
47546;DHT22;50104;52.002;4.688;2023-04-06T07:25:38;7.30;71.30
47546;DHT22;50104;52.002;4.688;2023-04-06T07:30:40;7.40;71.30
47546;DHT22;50104;52.002;4.688;2023-04-06T07:35:41;7.50;71.60
47546;DHT22;50104;52.002;4.688;2023-04-06T07:40:42;7.60;71.50
47546;DHT22;50104;52.002;4.688;2023-04-06T07:45:43;7.70;71.70
47546;DHT22;50104;52.002;4.688;2023-04-06T07:50:44;7.80;71.50
47546;DHT22;50104;52.002;4.688;2023-04-06T07:55:45;8.00;71.50
47546;DHT22;50104;52.002;4.688;2023-04-06T08:00:46;8.10;71.40
47546;DHT22;50104;52.002;4.688;2023-04-06T08:05:47;8.20;71.50
47546;DHT22;50104;52.002;4.688;2023-04-06T08:10:48;8.30;71.30
47546;DHT22;50104;52.002;4.688;2023-04-06T08:15:49;8.40;71.50
47546;DHT22;50104;52.002;4.688;2023-04-06T08:20:50;8.60;71.40
47546;DHT22;50104;52.002;4.688;2023-04-06T08:25:52;8.70;71.10
47546;DHT22;50104;52.002;4.688;2023-04-06T08:30:54;8.80;71.20
47546;DHT22;50104;52.002;4.688;2023-04-06T08:35:55;8.90;71.20
47546;DHT22;50104;52.002;4.688;2023-04-06T08:40:56;9.00;70.90
47546;DHT22;50104;52.002;4.688;2023-04-06T08:45:58;9.10;71.10
47546;DHT22;50104;52.002;4.688;2023-04-06T08:50:59;9.20;71.60
47546;DHT22;50104;52.002;4.688;2023-04-06T08:56:01;9.30;72.10
47546;DHT22;50104;52.002;4.688;2023-04-06T09:01:07;9.40;72.20
47546;DHT22;50104;52.002;4.688;2023-04-06T09:06:10;9.40;72.00
47546;DHT22;50104;52.002;4.688;2023-04-06T09:11:11;9.50;72.60
47546;DHT22;50104;52.002;4.688;2023-04-06T09:16:13;9.60;72.70
47546;DHT22;50104;52.002;4.688;2023-04-06T09:21:17;9.70;72.60
47546;DHT22;50104;52.002;4.688;2023-04-06T09:26:19;9.80;72.60
47546;DHT22;50104;52.002;4.688;2023-04-06T09:31:28;9.90;72.60
47546;DHT22;50104;52.002;4.688;2023-04-06T09:36:35;10.00;72.60
47546;DHT22;50104;52.002;4.688;2023-04-06T09:41:41;10.10;72.50
47546;DHT22;50104;52.002;4.688;2023-04-06T09:46:44;10.20;72.50
47546;DHT22;50104;52.002;4.688;2023-04-06T09:51:48;10.20;72.30
47546;DHT22;50104;52.002;4.688;2023-04-06T10:02:05;10.40;71.80
47546;DHT22;50104;52.002;4.688;2023-04-06T10:07:07;10.40;71.80
47546;DHT22;50104;52.002;4.688;2023-04-06T10:12:09;10.50;71.90
47546;DHT22;50104;52.002;4.688;2023-04-06T10:17:10;10.50;72.10
47546;DHT22;50104;52.002;4.688;2023-04-06T10:22:24;10.50;72.20
47546;DHT22;50104;52.002;4.688;2023-04-06T10:27:29;10.60;72.30
47546;DHT22;50104;52.002;4.688;2023-04-06T10:32:35;10.60;72.50
47546;DHT22;50104;52.002;4.688;2023-04-06T10:37:50;10.60;72.60
47546;DHT22;50104;52.002;4.688;2023-04-06T10:42:54;10.60;72.50
47546;DHT22;50104;52.002;4.688;2023-04-06T10:47:56;10.70;72.80
47546;DHT22;50104;52.002;4.688;2023-04-06T10:52:59;10.70;72.80
47546;DHT22;50104;52.002;4.688;2023-04-06T10:58:00;10.70;72.80
47546;DHT22;50104;52.002;4.688;2023-04-06T11:03:01;10.70;73.10
47546;DHT22;50104;52.002;4.688;2023-04-06T11:08:02;10.70;73.00
47546;DHT22;50104;52.002;4.688;2023-04-06T11:13:03;10.70;73.10
47546;DHT22;50104;52.002;4.688;2023-04-06T11:18:06;10.70;73.90
47546;DHT22;50104;52.002;4.688;2023-04-06T11:23:07;10.70;73.70
47546;DHT22;50104;52.002;4.688;2023-04-06T11:28:08;10.70;73.80
47546;DHT22;50104;52.002;4.688;2023-04-06T11:33:09;10.70;73.80
47546;DHT22;50104;52.002;4.688;2023-04-06T11:38:10;10.70;73.80
47546;DHT22;50104;52.002;4.688;2023-04-06T11:43:11;10.70;74.20
47546;DHT22;50104;52.002;4.688;2023-04-06T11:48:19;10.60;74.60
47546;DHT22;50104;52.002;4.688;2023-04-06T11:53:21;10.60;75.50
47546;DHT22;50104;52.002;4.688;2023-04-06T11:58:22;10.60;75.70
47546;DHT22;50104;52.002;4.688;2023-04-06T12:03:23;10.60;75.60
47546;DHT22;50104;52.002;4.688;2023-04-06T12:08:24;10.70;75.50
47546;DHT22;50104;52.002;4.688;2023-04-06T12:13:26;10.70;76.50
47546;DHT22;50104;52.002;4.688;2023-04-06T12:18:28;10.60;75.90
47546;DHT22;50104;52.002;4.688;2023-04-06T12:23:31;10.60;75.80
47546;DHT22;50104;52.002;4.688;2023-04-06T12:28:32;10.60;78.70
47546;DHT22;50104;52.002;4.688;2023-04-06T12:33:33;10.60;79.10
47546;DHT22;50104;52.002;4.688;2023-04-06T12:38:34;10.60;78.60
47546;DHT22;50104;52.002;4.688;2023-04-06T12:43:35;10.60;78.50
47546;DHT22;50104;52.002;4.688;2023-04-06T12:48:36;10.60;78.00
47546;DHT22;50104;52.002;4.688;2023-04-06T12:53:38;10.60;77.50
47546;DHT22;50104;52.002;4.688;2023-04-06T12:58:39;10.60;76.90
47546;DHT22;50104;52.002;4.688;2023-04-06T13:03:43;10.70;76.60
47546;DHT22;50104;52.002;4.688;2023-04-06T13:08:44;10.70;77.40
47546;DHT22;50104;52.002;4.688;2023-04-06T13:13:45;10.70;78.20
47546;DHT22;50104;52.002;4.688;2023-04-06T13:18:46;10.70;78.00
47546;DHT22;50104;52.002;4.688;2023-04-06T13:23:47;10.70;77.90
47546;DHT22;50104;52.002;4.688;2023-04-06T13:28:48;10.60;78.70
47546;DHT22;50104;52.002;4.688;2023-04-06T13:33:49;10.60;78.70
47546;DHT22;50104;52.002;4.688;2023-04-06T13:38:49;10.60;78.40
47546;DHT22;50104;52.002;4.688;2023-04-06T13:43:51;10.60;78.50
47546;DHT22;50104;52.002;4.688;2023-04-06T13:48:52;10.60;79.30
47546;DHT22;50104;52.002;4.688;2023-04-06T13:53:53;10.60;79.30
47546;DHT22;50104;52.002;4.688;2023-04-06T13:58:55;10.60;79.40
47546;DHT22;50104;52.002;4.688;2023-04-06T14:03:56;10.60;79.50
47546;DHT22;50104;52.002;4.688;2023-04-06T14:08:58;10.60;79.30
47546;DHT22;50104;52.002;4.688;2023-04-06T14:13:59;10.60;79.20
47546;DHT22;50104;52.002;4.688;2023-04-06T14:19:01;10.60;79.60
47546;DHT22;50104;52.002;4.688;2023-04-06T14:24:02;10.60;80.10
47546;DHT22;50104;52.002;4.688;2023-04-06T14:29:04;10.50;79.90
47546;DHT22;50104;52.002;4.688;2023-04-06T14:34:05;10.50;79.80
47546;DHT22;50104;52.002;4.688;2023-04-06T14:39:06;10.50;79.70
47546;DHT22;50104;52.002;4.688;2023-04-06T14:44:08;10.50;79.90
47546;DHT22;50104;52.002;4.688;2023-04-06T14:49:12;10.60;80.10
47546;DHT22;50104;52.002;4.688;2023-04-06T14:54:13;10.50;80.00
47546;DHT22;50104;52.002;4.688;2023-04-06T14:59:14;10.50;80.40
47546;DHT22;50104;52.002;4.688;2023-04-06T15:04:15;10.50;80.00
47546;DHT22;50104;52.002;4.688;2023-04-06T15:09:16;10.60;79.70
47546;DHT22;50104;52.002;4.688;2023-04-06T15:14:17;10.60;79.70
47546;DHT22;50104;52.002;4.688;2023-04-06T15:19:17;10.50;79.70
47546;DHT22;50104;52.002;4.688;2023-04-06T15:24:21;10.50;79.70
47546;DHT22;50104;52.002;4.688;2023-04-06T15:29:22;10.50;79.90
47546;DHT22;50104;52.002;4.688;2023-04-06T15:34:23;10.50;79.60
47546;DHT22;50104;52.002;4.688;2023-04-06T15:39:24;10.50;79.80
47546;DHT22;50104;52.002;4.688;2023-04-06T15:44:25;10.50;79.50
47546;DHT22;50104;52.002;4.688;2023-04-06T15:49:25;10.50;79.60
47546;DHT22;50104;52.002;4.688;2023-04-06T15:54:26;10.50;79.80
47546;DHT22;50104;52.002;4.688;2023-04-06T15:59:27;10.50;79.30
47546;DHT22;50104;52.002;4.688;2023-04-06T16:04:28;10.50;79.50
47546;DHT22;50104;52.002;4.688;2023-04-06T16:09:29;10.50;79.60
47546;DHT22;50104;52.002;4.688;2023-04-06T16:14:30;10.50;79.50
47546;DHT22;50104;52.002;4.688;2023-04-06T16:19:31;10.50;79.40
47546;DHT22;50104;52.002;4.688;2023-04-06T16:24:32;10.50;79.50
47546;DHT22;50104;52.002;4.688;2023-04-06T16:29:34;10.50;79.60
47546;DHT22;50104;52.002;4.688;2023-04-06T16:34:35;10.50;79.60
47546;DHT22;50104;52.002;4.688;2023-04-06T16:39:36;10.50;79.60
47546;DHT22;50104;52.002;4.688;2023-04-06T16:44:37;10.60;80.20
47546;DHT22;50104;52.002;4.688;2023-04-06T16:49:38;10.50;79.30
47546;DHT22;50104;52.002;4.688;2023-04-06T16:54:39;10.60;80.40
47546;DHT22;50104;52.002;4.688;2023-04-06T16:59:40;10.60;79.90
47546;DHT22;50104;52.002;4.688;2023-04-06T17:04:41;10.60;79.90
47546;DHT22;50104;52.002;4.688;2023-04-06T17:09:42;10.60;79.80
47546;DHT22;50104;52.002;4.688;2023-04-06T17:14:43;10.60;80.20
47546;DHT22;50104;52.002;4.688;2023-04-06T17:19:44;10.60;80.60
47546;DHT22;50104;52.002;4.688;2023-04-06T17:24:46;10.50;80.50
47546;DHT22;50104;52.002;4.688;2023-04-06T17:29:48;10.50;80.30
47546;DHT22;50104;52.002;4.688;2023-04-06T17:34:50;10.50;80.60
47546;DHT22;50104;52.002;4.688;2023-04-06T17:39:51;10.50;80.40
47546;DHT22;50104;52.002;4.688;2023-04-06T17:44:51;10.50;80.30
47546;DHT22;50104;52.002;4.688;2023-04-06T17:49:52;10.50;80.40
47546;DHT22;50104;52.002;4.688;2023-04-06T17:54:54;10.50;80.10
47546;DHT22;50104;52.002;4.688;2023-04-06T17:59:55;10.50;80.00
47546;DHT22;50104;52.002;4.688;2023-04-06T18:04:57;10.50;81.10
47546;DHT22;50104;52.002;4.688;2023-04-06T18:10:00;10.50;80.70
47546;DHT22;50104;52.002;4.688;2023-04-06T18:15:01;10.50;80.30
47546;DHT22;50104;52.002;4.688;2023-04-06T18:20:02;10.50;80.10
47546;DHT22;50104;52.002;4.688;2023-04-06T18:25:04;10.50;79.80
47546;DHT22;50104;52.002;4.688;2023-04-06T18:30:06;10.50;79.70
47546;DHT22;50104;52.002;4.688;2023-04-06T18:35:08;10.50;79.90
47546;DHT22;50104;52.002;4.688;2023-04-06T18:40:32;10.50;79.60
47546;DHT22;50104;52.002;4.688;2023-04-06T18:45:35;10.50;79.50
47546;DHT22;50104;52.002;4.688;2023-04-06T18:50:38;10.50;79.30
47546;DHT22;50104;52.002;4.688;2023-04-06T18:55:39;10.50;79.50
47546;DHT22;50104;52.002;4.688;2023-04-06T19:00:40;10.50;79.60
47546;DHT22;50104;52.002;4.688;2023-04-06T19:05:42;10.50;79.80
47546;DHT22;50104;52.002;4.688;2023-04-06T19:10:43;10.50;79.70
47546;DHT22;50104;52.002;4.688;2023-04-06T19:15:44;10.50;79.70
47546;DHT22;50104;52.002;4.688;2023-04-06T19:20:44;10.50;79.30
47546;DHT22;50104;52.002;4.688;2023-04-06T19:25:46;10.50;78.80
47546;DHT22;50104;52.002;4.688;2023-04-06T19:30:47;10.40;79.00
47546;DHT22;50104;52.002;4.688;2023-04-06T19:35:48;10.40;78.90
47546;DHT22;50104;52.002;4.688;2023-04-06T19:40:48;10.30;78.90
47546;DHT22;50104;52.002;4.688;2023-04-06T19:45:50;10.30;78.70
47546;DHT22;50104;52.002;4.688;2023-04-06T19:50:54;10.20;78.90
47546;DHT22;50104;52.002;4.688;2023-04-06T19:55:55;10.20;79.10
47546;DHT22;50104;52.002;4.688;2023-04-06T20:00:56;10.10;79.30
47546;DHT22;50104;52.002;4.688;2023-04-06T20:05:57;10.10;79.60
47546;DHT22;50104;52.002;4.688;2023-04-06T20:11:02;10.00;79.60
47546;DHT22;50104;52.002;4.688;2023-04-06T20:16:04;10.00;79.50
47546;DHT22;50104;52.002;4.688;2023-04-06T20:21:05;9.90;79.40
47546;DHT22;50104;52.002;4.688;2023-04-06T20:26:09;9.90;79.80
47546;DHT22;50104;52.002;4.688;2023-04-06T20:31:10;9.80;79.50
47546;DHT22;50104;52.002;4.688;2023-04-06T20:36:11;9.80;79.90
47546;DHT22;50104;52.002;4.688;2023-04-06T20:41:15;9.70;80.50
47546;DHT22;50104;52.002;4.688;2023-04-06T20:46:16;9.70;80.70
47546;DHT22;50104;52.002;4.688;2023-04-06T20:51:21;9.70;81.50
47546;DHT22;50104;52.002;4.688;2023-04-06T20:56:25;9.70;82.20
47546;DHT22;50104;52.002;4.688;2023-04-06T21:01:26;9.70;82.60
47546;DHT22;50104;52.002;4.688;2023-04-06T21:06:29;9.70;82.20
47546;DHT22;50104;52.002;4.688;2023-04-06T21:11:31;9.70;81.90
47546;DHT22;50104;52.002;4.688;2023-04-06T21:16:32;9.70;81.70
47546;DHT22;50104;52.002;4.688;2023-04-06T21:21:33;9.70;81.30
47546;DHT22;50104;52.002;4.688;2023-04-06T21:26:34;9.70;83.20
47546;DHT22;50104;52.002;4.688;2023-04-06T21:31:36;9.70;83.10
47546;DHT22;50104;52.002;4.688;2023-04-06T21:36:40;9.80;83.20
47546;DHT22;50104;52.002;4.688;2023-04-06T21:41:41;9.80;83.20
47546;DHT22;50104;52.002;4.688;2023-04-06T21:46:42;9.80;83.30
47546;DHT22;50104;52.002;4.688;2023-04-06T21:51:43;9.80;82.90
47546;DHT22;50104;52.002;4.688;2023-04-06T21:56:44;9.80;83.20
47546;DHT22;50104;52.002;4.688;2023-04-06T22:01:45;9.80;83.20
47546;DHT22;50104;52.002;4.688;2023-04-06T22:06:46;9.80;83.20
47546;DHT22;50104;52.002;4.688;2023-04-06T22:11:47;9.90;83.30
47546;DHT22;50104;52.002;4.688;2023-04-06T22:16:48;9.90;83.60
47546;DHT22;50104;52.002;4.688;2023-04-06T22:21:49;9.90;83.20
47546;DHT22;50104;52.002;4.688;2023-04-06T22:26:50;9.90;83.60
47546;DHT22;50104;52.002;4.688;2023-04-06T22:31:51;9.90;83.50
47546;DHT22;50104;52.002;4.688;2023-04-06T22:36:52;9.90;82.90
47546;DHT22;50104;52.002;4.688;2023-04-06T22:41:53;9.90;83.50
47546;DHT22;50104;52.002;4.688;2023-04-06T22:46:53;9.80;83.20
47546;DHT22;50104;52.002;4.688;2023-04-06T22:51:54;9.80;83.60
47546;DHT22;50104;52.002;4.688;2023-04-06T22:56:55;9.80;83.00
47546;DHT22;50104;52.002;4.688;2023-04-06T23:01:56;9.80;82.80
47546;DHT22;50104;52.002;4.688;2023-04-06T23:06:57;9.80;82.70
47546;DHT22;50104;52.002;4.688;2023-04-06T23:11:58;9.70;82.70
47546;DHT22;50104;52.002;4.688;2023-04-06T23:16:59;9.70;82.60
47546;DHT22;50104;52.002;4.688;2023-04-06T23:22:00;9.70;82.70
47546;DHT22;50104;52.002;4.688;2023-04-06T23:27:01;9.70;82.50
47546;DHT22;50104;52.002;4.688;2023-04-06T23:32:02;9.70;82.90
47546;DHT22;50104;52.002;4.688;2023-04-06T23:37:03;9.60;82.90
47546;DHT22;50104;52.002;4.688;2023-04-06T23:42:04;9.60;82.50
47546;DHT22;50104;52.002;4.688;2023-04-06T23:47:05;9.60;82.90
47546;DHT22;50104;52.002;4.688;2023-04-06T23:52:06;9.60;82.60
47546;DHT22;50104;52.002;4.688;2023-04-06T23:57:07;9.60;82.40
